Time;durP1;ratioP1;P1;durP2;ratioP2;P2;SDS_P1;SDS_P2;PMS_P1;PMS_P2;Temp;Humidity;BMP_temperature;BMP_pressure;BME280_temperature;BME280_humidity;BME280_pressure;Samples;Min_cycle;Max_cycle;Signal;HPM_P1;HPM_P2
2023/05/29 00:05:53;;;;;;;10.93;2.33;;;13.10;99.90;;;;;;12451740;28;20760;-39
2023/05/29 00:11:55;;;;;;;11.48;3.10;;;13.20;99.90;;;;;;12447415;28;20045;-40
2023/05/29 00:17:57;;;;;;;11.80;2.92;;;13.10;99.90;;;;;;12450353;28;20072;-38
2023/05/29 00:23:59;;;;;;;11.15;2.92;;;12.80;99.90;;;;;;12448843;28;20181;-38
2023/05/29 00:30:03;;;;;;;12.88;2.72;;;12.60;99.90;;;;;;12450480;28;20061;-38
2023/05/29 00:36:05;;;;;;;9.32;2.55;;;12.40;99.90;;;;;;12449012;28;20062;-38
2023/05/29 00:42:09;;;;;;;11.88;2.40;;;12.20;99.90;;;;;;12445444;28;20045;-38
2023/05/29 00:48:12;;;;;;;11.98;2.67;;;12.20;99.90;;;;;;12450541;28;20076;-38
2023/05/29 00:54:21;;;;;;;16.88;2.70;;;12.20;99.90;;;;;;12446747;28;20140;-38
2023/05/29 01:00:23;;;;;;;14.18;2.80;;;12.10;99.90;;;;;;12448534;28;20049;-39
2023/05/29 01:06:25;;;;;;;13.82;2.90;;;12.30;99.90;;;;;;12454842;28;20054;-37
2023/05/29 01:12:37;;;;;;;12.18;2.65;;;12.30;99.90;;;;;;12451891;28;20512;-38
2023/05/29 01:19:14;;;;;;;11.70;2.70;;;12.30;99.90;;;;;;12446893;28;20113;-38
2023/05/29 01:25:44;;;;;;;13.82;2.60;;;12.10;99.90;;;;;;12447530;28;20049;-38
2023/05/29 01:31:51;;;;;;;12.55;2.13;;;11.70;99.90;;;;;;12446889;28;20081;-38
2023/05/29 01:37:53;;;;;;;8.57;2.20;;;11.50;99.90;;;;;;12447220;28;20248;-38
2023/05/29 01:43:59;;;;;;;11.90;2.47;;;11.50;99.90;;;;;;12447627;28;20077;-38
2023/05/29 01:50:04;;;;;;;18.00;2.20;;;11.50;99.90;;;;;;12450363;28;20094;-38
2023/05/29 01:56:07;;;;;;;16.23;2.42;;;11.60;99.90;;;;;;12454586;28;20405;-38
2023/05/29 02:02:11;;;;;;;10.77;2.20;;;11.60;99.90;;;;;;12446558;28;20053;-38
2023/05/29 02:08:13;;;;;;;7.28;2.35;;;11.80;99.90;;;;;;12448389;28;20054;-38
2023/05/29 02:14:15;;;;;;;10.27;2.30;;;11.80;99.90;;;;;;12444679;28;20042;-38
2023/05/29 02:20:17;;;;;;;11.20;2.15;;;11.30;99.90;;;;;;12444769;28;20054;-38
2023/05/29 02:26:20;;;;;;;13.30;2.35;;;10.90;99.90;;;;;;12450102;28;20056;-37
2023/05/29 02:32:22;;;;;;;12.05;2.45;;;10.90;99.90;;;;;;12447200;28;20054;-38
2023/05/29 02:38:24;;;;;;;15.82;2.33;;;11.10;99.90;;;;;;12445051;28;20078;-38
2023/05/29 02:44:26;;;;;;;12.45;2.45;;;11.20;99.90;;;;;;12453969;28;20068;-37
2023/05/29 02:50:28;;;;;;;12.48;2.53;;;11.40;99.90;;;;;;12449491;28;20061;-38
2023/05/29 02:56:30;;;;;;;16.08;2.65;;;10.80;99.90;;;;;;12444501;28;20064;-38
2023/05/29 03:02:32;;;;;;;10.55;2.83;;;10.90;99.90;;;;;;12441672;28;20034;-38
2023/05/29 03:08:40;;;;;;;13.23;2.50;;;10.90;99.90;;;;;;12447904;28;20211;-38
2023/05/29 03:14:42;;;;;;;15.52;2.28;;;10.80;99.90;;;;;;12443992;28;20054;-37
2023/05/29 03:20:44;;;;;;;13.18;2.70;;;10.50;99.90;;;;;;12447045;28;20478;-39
2023/05/29 03:26:45;;;;;;;11.82;2.67;;;10.70;99.90;;;;;;12446181;28;20045;-38
2023/05/29 03:32:48;;;;;;;14.45;2.92;;;10.80;99.90;;;;;;12441006;28;20046;-38
2023/05/29 03:38:50;;;;;;;11.15;2.55;;;10.80;99.90;;;;;;12415439;28;20045;-38
2023/05/29 03:44:56;;;;;;;10.70;2.00;;;10.80;99.90;;;;;;12427209;28;20084;-38
2023/05/29 03:51:04;;;;;;;9.13;2.28;;;10.70;99.90;;;;;;12426796;28;20049;-38
2023/05/29 03:57:08;;;;;;;9.25;2.13;;;10.60;99.90;;;;;;12438966;28;20078;-38
2023/05/29 04:03:11;;;;;;;18.90;2.60;;;10.70;99.90;;;;;;12434263;28;20049;-37
2023/05/29 04:09:14;;;;;;;12.43;2.20;;;10.50;99.90;;;;;;12423970;28;20084;-38
2023/05/29 04:15:17;;;;;;;14.07;3.13;;;10.80;99.90;;;;;;12420194;28;20050;-38
2023/05/29 04:21:20;;;;;;;15.70;2.40;;;10.60;99.90;;;;;;12415530;28;20050;-38
2023/05/29 04:27:22;;;;;;;12.73;2.70;;;11.00;99.90;;;;;;12421502;28;20149;-38
2023/05/29 04:33:25;;;;;;;8.80;2.05;;;11.50;99.90;;;;;;12422102;28;20050;-38
2023/05/29 04:39:27;;;;;;;13.60;2.25;;;11.70;99.90;;;;;;12424169;28;20064;-38
2023/05/29 04:45:29;;;;;;;14.50;2.15;;;12.50;99.90;;;;;;12429551;28;20811;-37
2023/05/29 04:51:31;;;;;;;9.95;1.80;;;13.50;99.90;;;;;;12442786;28;20057;-37
2023/05/29 04:57:33;;;;;;;14.63;2.50;;;13.50;99.90;;;;;;12441705;28;20065;-38
2023/05/29 05:03:35;;;;;;;16.83;2.83;;;13.00;99.90;;;;;;12441834;28;20093;-38
2023/05/29 05:09:37;;;;;;;14.38;2.58;;;12.60;99.90;;;;;;12436481;28;20050;-38
2023/05/29 05:15:39;;;;;;;14.48;2.85;;;12.40;99.90;;;;;;12466710;28;20092;-38
2023/05/29 05:21:41;;;;;;;15.70;2.22;;;12.10;99.90;;;;;;12443032;28;20525;-38
2023/05/29 05:27:43;;;;;;;13.07;2.40;;;11.80;99.90;;;;;;12441837;28;20057;-38
2023/05/29 05:33:45;;;;;;;11.82;2.22;;;12.00;99.90;;;;;;12446844;28;20088;-38
2023/05/29 05:39:47;;;;;;;11.32;2.13;;;12.20;99.90;;;;;;12435096;28;20539;-38
2023/05/29 05:45:49;;;;;;;13.75;2.47;;;12.20;99.90;;;;;;12440984;28;20144;-38
2023/05/29 05:51:51;;;;;;;9.10;2.85;;;12.30;99.90;;;;;;12441469;28;20154;-38
2023/05/29 05:57:55;;;;;;;17.58;2.28;;;12.30;99.90;;;;;;12439763;28;20444;-37
2023/05/29 06:03:57;;;;;;;12.98;1.85;;;12.30;99.90;;;;;;12442254;28;20049;-38
2023/05/29 06:09:59;;;;;;;13.80;2.33;;;12.10;99.90;;;;;;12435817;28;20487;-38
2023/05/29 06:16:02;;;;;;;17.90;3.00;;;12.00;99.90;;;;;;12460238;28;20414;-38
2023/05/29 06:22:10;;;;;;;11.43;2.55;;;12.00;99.90;;;;;;12444938;28;20078;-38
2023/05/29 06:28:12;;;;;;;17.45;2.65;;;12.10;99.90;;;;;;12450931;28;20561;-38
2023/05/29 06:34:14;;;;;;;14.05;2.85;;;12.00;99.90;;;;;;12443893;28;20049;-38
2023/05/29 06:40:22;;;;;;;9.98;2.53;;;12.20;99.90;;;;;;12446217;28;20050;-38
2023/05/29 06:46:24;;;;;;;11.70;2.53;;;12.60;99.90;;;;;;12440612;28;20184;-38
2023/05/29 06:52:28;;;;;;;16.58;3.15;;;13.00;99.90;;;;;;12450989;28;20050;-38
2023/05/29 06:58:31;;;;;;;13.20;2.22;;;13.20;99.90;;;;;;12440739;28;20050;-38
2023/05/29 07:04:32;;;;;;;13.25;2.30;;;13.10;99.90;;;;;;12442089;28;20072;-38
2023/05/29 07:10:36;;;;;;;10.02;2.38;;;13.30;99.90;;;;;;12426423;28;20053;-38
2023/05/29 07:16:37;;;;;;;11.75;2.25;;;13.10;99.90;;;;;;12451196;28;20057;-38
2023/05/29 07:22:39;;;;;;;9.55;2.05;;;13.20;99.90;;;;;;12430650;28;20088;-38
2023/05/29 07:28:41;;;;;;;11.27;2.15;;;13.50;99.90;;;;;;12417439;28;20053;-38
2023/05/29 07:34:43;;;;;;;9.27;2.53;;;13.50;99.90;;;;;;12433669;28;20042;-38
2023/05/29 07:40:51;;;;;;;8.15;1.77;;;13.70;99.90;;;;;;12423975;28;20074;-38
2023/05/29 07:46:53;;;;;;;14.07;2.08;;;13.60;99.90;;;;;;12423607;28;20057;-38
2023/05/29 07:53:00;;;;;;;13.18;2.60;;;13.90;99.90;;;;;;12422929;28;20061;-38
2023/05/29 07:59:03;;;;;;;11.93;2.05;;;13.70;99.90;;;;;;12423269;28;20145;-38
2023/05/29 08:05:07;;;;;;;11.68;2.30;;;13.90;99.90;;;;;;12417303;28;20050;-38
2023/05/29 08:11:10;;;;;;;10.40;2.10;;;13.80;99.90;;;;;;12446019;28;20494;-39
2023/05/29 08:17:12;;;;;;;13.85;2.40;;;13.70;99.90;;;;;;12446015;28;20046;-38
2023/05/29 08:23:14;;;;;;;11.73;2.20;;;13.90;99.90;;;;;;12450237;28;20044;-38
2023/05/29 08:29:16;;;;;;;11.98;2.22;;;14.00;99.90;;;;;;12446492;28;20108;-38
2023/05/29 08:35:18;;;;;;;12.98;2.30;;;14.00;99.90;;;;;;12451514;28;20042;-38
2023/05/29 08:41:52;;;;;;;11.52;2.22;;;14.30;99.90;;;;;;12449643;28;20045;-38
2023/05/29 08:47:54;;;;;;;13.05;2.63;;;14.20;99.90;;;;;;12438467;28;20494;-38
2023/05/29 08:53:57;;;;;;;13.82;2.40;;;14.00;99.90;;;;;;12437739;28;20049;-37
2023/05/29 09:00:00;;;;;;;11.68;2.40;;;14.20;99.90;;;;;;12444132;28;20081;-38
2023/05/29 09:06:03;;;;;;;12.13;2.67;;;14.40;99.90;;;;;;12447612;28;20498;-38
2023/05/29 09:12:05;;;;;;;15.90;2.50;;;14.60;99.90;;;;;;12437846;28;20053;-36
2023/05/29 09:18:08;;;;;;;8.57;2.67;;;14.90;99.90;;;;;;12448233;28;20115;-36
2023/05/29 09:24:10;;;;;;;10.77;2.17;;;15.40;99.90;;;;;;12444720;28;20042;-36
2023/05/29 09:30:41;;;;;;;9.00;2.13;;;15.60;99.90;;;;;;12438451;28;20394;-37
2023/05/29 09:36:42;;;;;;;15.77;3.13;;;15.80;99.90;;;;;;12450559;28;20383;-37
2023/05/29 09:42:48;;;;;;;12.57;2.78;;;16.00;99.90;;;;;;12446141;28;20053;-37
2023/05/29 09:48:49;;;;;;;16.20;2.75;;;15.80;99.90;;;;;;12444361;28;20046;-36
2023/05/29 09:54:52;;;;;;;13.30;3.00;;;16.10;99.90;;;;;;12441626;28;20049;-36
2023/05/29 10:00:56;;;;;;;10.90;2.50;;;16.50;99.90;;;;;;12438686;28;20050;-37
2023/05/29 10:07:08;;;;;;;9.82;2.15;;;16.80;99.90;;;;;;12441726;28;20056;-37
2023/05/29 10:13:12;;;;;;;9.02;2.30;;;16.80;99.90;;;;;;12430712;28;20045;-37
2023/05/29 10:19:24;;;;;;;11.10;2.33;;;17.00;99.90;;;;;;12454526;28;20056;-37
2023/05/29 10:25:28;;;;;;;9.20;2.35;;;17.20;99.90;;;;;;12435627;28;20100;-37
2023/05/29 10:31:43;;;;;;;;;;;17.90;99.90;;;;;;12450624;28;20475;-37
2023/05/29 10:38:16;;;;;;;10.05;1.95;;;17.50;99.90;;;;;;12446071;28;19937;-37
2023/05/29 10:44:31;;;;;;;8.48;2.17;;;17.70;99.90;;;;;;12441853;28;20137;-37
2023/05/29 10:50:42;;;;;;;11.68;2.38;;;18.00;99.90;;;;;;12440226;28;20073;-37
2023/05/29 10:56:51;;;;;;;10.35;2.20;;;18.40;99.90;;;;;;12457439;28;20049;-37
2023/05/29 11:02:53;;;;;;;11.60;3.20;;;18.40;99.90;;;;;;12435879;28;20037;-37
2023/05/29 11:08:58;;;;;;;11.50;2.47;;;18.10;99.90;;;;;;12433737;28;20479;-37
2023/05/29 11:15:09;;;;;;;11.00;2.22;;;18.30;99.90;;;;;;12446124;28;20089;-37
2023/05/29 11:21:29;;;;;;;10.95;2.50;;;18.50;99.90;;;;;;12443579;28;20061;-37
2023/05/29 11:27:32;;;;;;;9.30;2.30;;;18.70;99.90;;;;;;12439227;28;20038;-37
2023/05/29 11:33:40;;;;;;;9.70;2.73;;;18.60;99.90;;;;;;12443830;28;20042;-37
2023/05/29 11:39:42;;;;;;;10.65;2.67;;;18.90;99.90;;;;;;12442252;28;20045;-37
2023/05/29 11:45:44;;;;;;;10.07;2.38;;;18.70;99.90;;;;;;12445278;28;20045;-37
2023/05/29 11:51:47;;;;;;;9.85;2.38;;;18.80;99.90;;;;;;12440745;28;20058;-37
2023/05/29 11:57:50;;;;;;;9.77;2.80;;;18.70;99.90;;;;;;12440361;28;20092;-37
2023/05/29 12:03:53;;;;;;;8.53;2.60;;;18.60;99.90;;;;;;12437110;28;20128;-37
2023/05/29 12:09:57;;;;;;;9.05;2.22;;;18.80;99.90;;;;;;12449556;28;20061;-38
2023/05/29 12:16:05;;;;;;;8.70;2.33;;;19.00;99.90;;;;;;12436889;28;20041;-38
2023/05/29 12:22:07;;;;;;;12.63;2.75;;;19.20;99.90;;;;;;12431784;28;20065;-37
2023/05/29 12:28:15;;;;;;;9.25;2.60;;;18.70;99.90;;;;;;12431945;28;20095;-37
2023/05/29 12:34:20;;;;;;;6.95;2.08;;;18.70;99.90;;;;;;12439268;28;20456;-38
2023/05/29 12:40:24;;;;;;;11.75;2.80;;;18.60;99.90;;;;;;12437174;28;20057;-38
2023/05/29 12:46:27;;;;;;;11.32;2.30;;;18.80;99.90;;;;;;12438506;28;20777;-37
2023/05/29 12:52:29;;;;;;;9.68;2.50;;;18.90;99.90;;;;;;12432974;28;20053;-37
2023/05/29 12:58:31;;;;;;;11.18;2.85;;;18.70;99.90;;;;;;12434287;28;20038;-37
2023/05/29 13:04:33;;;;;;;14.23;2.63;;;18.50;99.90;;;;;;12450711;28;20417;-37
2023/05/29 13:10:35;;;;;;;6.32;2.35;;;18.80;99.90;;;;;;12442993;28;20081;-38
2023/05/29 13:16:37;;;;;;;8.68;2.22;;;18.90;99.90;;;;;;12449374;28;20161;-38
2023/05/29 13:22:41;;;;;;;17.73;3.08;;;18.90;99.90;;;;;;12434591;28;20045;-37
2023/05/29 13:28:42;;;;;;;11.30;2.40;;;18.90;99.90;;;;;;12444814;28;20478;-37
2023/05/29 13:34:44;;;;;;;8.95;2.50;;;18.70;99.90;;;;;;12443993;28;20057;-37
2023/05/29 13:40:46;;;;;;;11.27;2.33;;;18.80;99.90;;;;;;12443320;28;20402;-38
2023/05/29 13:46:48;;;;;;;9.18;2.22;;;18.50;99.90;;;;;;12444959;28;20053;-37
2023/05/29 13:52:50;;;;;;;9.70;2.17;;;18.50;99.90;;;;;;12440755;28;20077;-37
2023/05/29 13:58:53;;;;;;;11.23;2.20;;;18.90;99.90;;;;;;12433914;28;20061;-36
2023/05/29 14:04:55;;;;;;;11.65;2.30;;;18.80;99.90;;;;;;12430950;28;20045;-38
2023/05/29 14:10:56;;;;;;;9.45;2.53;;;18.50;99.90;;;;;;12433193;28;20054;-37
2023/05/29 14:16:59;;;;;;;10.00;2.20;;;18.60;99.90;;;;;;12426831;28;20038;-39
2023/05/29 14:23:02;;;;;;;9.10;2.13;;;18.60;99.90;;;;;;12437888;28;20410;-38
2023/05/29 14:29:04;;;;;;;8.85;2.35;;;18.60;99.90;;;;;;12440912;28;20054;-38
2023/05/29 14:35:14;;;;;;;12.10;2.78;;;18.70;99.90;;;;;;12434117;28;20046;-39
2023/05/29 14:41:16;;;;;;;9.90;2.15;;;18.70;99.90;;;;;;12435957;28;20434;-38
2023/05/29 14:47:18;;;;;;;9.82;2.10;;;18.90;99.90;;;;;;12453258;28;20054;-38
2023/05/29 14:53:22;;;;;;;12.93;2.40;;;18.80;99.90;;;;;;12437111;28;20092;-38
2023/05/29 14:59:25;;;;;;;10.60;2.25;;;18.70;99.90;;;;;;12436865;28;20055;-38
2023/05/29 15:05:27;;;;;;;9.15;2.30;;;18.90;99.90;;;;;;12442118;28;20176;-38
2023/05/29 15:11:33;;;;;;;9.93;2.65;;;18.90;99.90;;;;;;12436084;28;20054;-38
2023/05/29 15:17:36;;;;;;;9.40;2.10;;;19.10;99.90;;;;;;12433958;28;20053;-38
2023/05/29 15:23:43;;;;;;;8.30;2.33;;;19.00;99.90;;;;;;12432842;28;20054;-38
2023/05/29 15:29:45;;;;;;;12.15;2.03;;;19.10;99.90;;;;;;12435628;28;20128;-38
2023/05/29 15:35:47;;;;;;;8.02;2.13;;;19.30;99.90;;;;;;12436739;28;20061;-39
2023/05/29 15:41:49;;;;;;;9.55;2.30;;;19.30;99.90;;;;;;12435517;28;20046;-38
2023/05/29 15:47:52;;;;;;;8.77;1.98;;;19.30;99.90;;;;;;12440052;28;20049;-38
2023/05/29 15:53:54;;;;;;;7.33;1.87;;;19.20;99.90;;;;;;12435964;28;20042;-38
2023/05/29 15:59:56;;;;;;;10.90;2.63;;;19.10;99.90;;;;;;12445894;28;20296;-38
2023/05/29 16:05:58;;;;;;;11.88;2.20;;;19.30;99.90;;;;;;12435876;28;20498;-39
2023/05/29 16:12:00;;;;;;;10.40;2.08;;;19.40;99.90;;;;;;12432681;28;20056;-38
2023/05/29 16:18:02;;;;;;;7.55;1.92;;;19.00;99.90;;;;;;12434228;28;20050;-38
2023/05/29 16:24:05;;;;;;;7.97;1.92;;;19.10;99.90;;;;;;12426740;28;20080;-38
2023/05/29 16:30:08;;;;;;;9.57;2.00;;;19.10;99.90;;;;;;12435460;28;20061;-38
2023/05/29 16:36:10;;;;;;;9.40;1.92;;;18.90;99.90;;;;;;12406976;28;20049;-39
2023/05/29 16:42:12;;;;;;;7.53;1.75;;;18.90;99.90;;;;;;12470881;28;20139;-38
2023/05/29 16:48:15;;;;;;;10.25;2.63;;;19.00;99.90;;;;;;12443041;28;20046;-40
2023/05/29 16:54:17;;;;;;;8.70;2.10;;;19.00;99.90;;;;;;12456566;28;20049;-38
2023/05/29 17:00:19;;;;;;;10.25;2.47;;;18.90;99.90;;;;;;12440660;28;20775;-38
2023/05/29 17:06:21;;;;;;;8.18;2.13;;;19.10;99.90;;;;;;12432292;28;20046;-39
2023/05/29 17:12:23;;;;;;;6.65;2.00;;;19.20;99.90;;;;;;12439718;28;20137;-39
2023/05/29 17:18:26;;;;;;;9.57;2.25;;;19.50;99.90;;;;;;12451010;28;20042;-38
2023/05/29 17:24:28;;;;;;;10.63;2.17;;;19.40;99.90;;;;;;12442870;28;20056;-38
2023/05/29 17:30:30;;;;;;;12.02;2.30;;;19.30;99.90;;;;;;12437057;28;20069;-39
2023/05/29 17:36:32;;;;;;;7.72;2.20;;;19.50;99.90;;;;;;12451685;28;20132;-39
2023/05/29 17:42:34;;;;;;;9.45;2.08;;;19.30;99.90;;;;;;12439463;28;20069;-38
2023/05/29 17:48:36;;;;;;;8.23;2.47;;;19.80;99.90;;;;;;12437535;28;20050;-38
2023/05/29 17:54:38;;;;;;;8.07;2.40;;;19.60;99.90;;;;;;12434431;28;20065;-38
2023/05/29 18:00:39;;;;;;;8.77;2.28;;;19.40;99.90;;;;;;12444581;28;20208;-38
2023/05/29 18:06:41;;;;;;;11.18;2.42;;;18.80;99.90;;;;;;12438485;28;20046;-38
2023/05/29 18:12:45;;;;;;;9.70;2.50;;;17.70;99.90;;;;;;12448674;28;20061;-38
2023/05/29 18:18:47;;;;;;;12.40;2.53;;;17.00;99.90;;;;;;12437859;28;20046;-38
2023/05/29 18:24:48;;;;;;;13.75;2.65;;;16.70;99.90;;;;;;12444322;28;20053;-38
2023/05/29 18:30:50;;;;;;;7.97;1.90;;;16.30;99.90;;;;;;12437726;28;20042;-38
2023/05/29 18:36:52;;;;;;;8.52;2.63;;;16.30;99.90;;;;;;12445773;28;20050;-38
2023/05/29 18:42:54;;;;;;;12.73;2.13;;;16.00;99.90;;;;;;12433366;28;20050;-39
2023/05/29 18:48:56;;;;;;;9.93;2.30;;;15.90;99.90;;;;;;12437622;28;20482;-39
2023/05/29 18:54:58;;;;;;;9.38;2.55;;;15.70;99.90;;;;;;12431898;28;20042;-39
2023/05/29 19:01:00;;;;;;;9.82;2.08;;;15.60;99.90;;;;;;12437898;28;20049;-38
2023/05/29 19:07:11;;;;;;;7.15;1.88;;;15.20;99.90;;;;;;12432690;28;20046;-38
2023/05/29 19:13:14;;;;;;;8.48;2.08;;;15.10;99.90;;;;;;12439489;28;20052;-39
2023/05/29 19:19:17;;;;;;;9.32;2.10;;;14.90;99.90;;;;;;12441443;28;20042;-39
2023/05/29 19:25:19;;;;;;;9.90;1.90;;;14.80;99.90;;;;;;12452903;28;20045;-38
2023/05/29 19:31:25;;;;;;;12.40;2.40;;;14.70;99.90;;;;;;12447229;28;20045;-39
2023/05/29 19:37:28;;;;;;;7.32;1.52;;;14.40;99.90;;;;;;12431482;28;20080;-38
2023/05/29 19:43:30;;;;;;;8.55;1.90;;;14.30;99.90;;;;;;12427784;28;20051;-38
2023/05/29 19:49:32;;;;;;;11.13;1.70;;;14.10;99.90;;;;;;12439347;28;20401;-39
2023/05/29 19:55:34;;;;;;;9.88;1.70;;;14.00;99.90;;;;;;12454613;28;20376;-38
2023/05/29 20:01:36;;;;;;;11.48;2.35;;;13.50;99.90;;;;;;12451997;28;20129;-38
2023/05/29 20:07:38;;;;;;;13.70;2.65;;;13.30;99.90;;;;;;12436162;28;20045;-38
2023/05/29 20:13:41;;;;;;;8.90;1.60;;;13.20;99.90;;;;;;12449591;28;20037;-38
2023/05/29 20:19:43;;;;;;;13.03;2.13;;;13.10;99.90;;;;;;12450390;28;20489;-38
2023/05/29 20:25:45;;;;;;;9.30;1.83;;;12.80;99.90;;;;;;12440319;28;20038;-38
2023/05/29 20:31:48;;;;;;;9.85;1.67;;;12.70;99.90;;;;;;12454859;28;20088;-38
2023/05/29 20:37:53;;;;;;;12.50;2.10;;;12.40;99.90;;;;;;12447091;28;20041;-38
2023/05/29 20:43:56;;;;;;;10.70;2.40;;;12.50;99.90;;;;;;12443410;28;20046;-38
2023/05/29 20:49:58;;;;;;;12.18;1.92;;;12.20;99.90;;;;;;12457611;28;20049;-38
2023/05/29 20:56:00;;;;;;;7.50;1.83;;;12.40;99.90;;;;;;12445840;28;20045;-38
2023/05/29 21:02:02;;;;;;;9.25;1.75;;;12.20;99.90;;;;;;12450148;28;20053;-38
2023/05/29 21:08:05;;;;;;;16.15;2.58;;;11.90;99.90;;;;;;12453510;28;20054;-38
2023/05/29 21:14:07;;;;;;;15.18;2.15;;;12.10;99.90;;;;;;12457235;28;20046;-38
2023/05/29 21:20:11;;;;;;;12.73;2.05;;;12.30;99.90;;;;;;12443604;28;20131;-38
2023/05/29 21:26:16;;;;;;;9.98;2.38;;;12.40;99.90;;;;;;12451266;28;20046;-37
2023/05/29 21:32:18;;;;;;;14.10;2.13;;;12.20;99.90;;;;;;12443032;28;20074;-39
2023/05/29 21:38:20;;;;;;;18.38;2.55;;;12.30;99.90;;;;;;12453126;28;20050;-38
2023/05/29 21:44:22;;;;;;;12.02;2.28;;;12.40;99.90;;;;;;12450039;28;20038;-38
2023/05/29 21:50:24;;;;;;;13.00;2.35;;;12.30;99.90;;;;;;12451078;28;20516;-37
2023/05/29 21:56:27;;;;;;;9.35;1.70;;;12.10;99.90;;;;;;12433854;28;20049;-38
2023/05/29 22:02:29;;;;;;;12.85;2.22;;;12.10;99.90;;;;;;12447811;28;20042;-38
2023/05/29 22:08:45;;;;;;;15.60;2.38;;;12.20;99.90;;;;;;12442970;28;20050;-38
2023/05/29 22:14:47;;;;;;;13.32;2.17;;;12.10;99.90;;;;;;12429455;28;20041;-38
2023/05/29 22:20:49;;;;;;;12.93;2.55;;;12.00;99.90;;;;;;12443943;28;20054;-38
2023/05/29 22:26:51;;;;;;;9.60;2.10;;;11.70;99.90;;;;;;12442042;28;20124;-38
2023/05/29 22:33:02;;;;;;;16.55;2.40;;;11.80;99.90;;;;;;12440138;28;20060;-38
2023/05/29 22:39:04;;;;;;;23.75;3.20;;;11.50;99.90;;;;;;12444509;28;20053;-38
2023/05/29 22:45:09;;;;;;;12.48;2.95;;;11.30;99.90;;;;;;12454998;28;20523;-38
2023/05/29 22:51:13;;;;;;;14.05;2.33;;;11.40;99.90;;;;;;12437088;28;20045;-38
2023/05/29 22:57:15;;;;;;;;;;;11.50;99.90;;;;;;12451653;28;20038;-38
2023/05/29 23:03:17;;;;;;;16.13;2.50;;;11.20;99.90;;;;;;12447087;28;19932;-37
2023/05/29 23:09:20;;;;;;;17.90;2.60;;;11.40;99.90;;;;;;12437194;28;20057;-36
2023/05/29 23:15:22;;;;;;;14.98;3.42;;;11.50;99.90;;;;;;12451701;28;20050;-36
2023/05/29 23:21:25;;;;;;;14.68;2.75;;;11.40;99.90;;;;;;12437668;28;20065;-36
2023/05/29 23:27:27;;;;;;;14.23;2.22;;;11.50;99.90;;;;;;12440769;28;20528;-36
2023/05/29 23:33:29;;;;;;;13.85;2.80;;;11.60;99.90;;;;;;12454805;28;20050;-36
2023/05/29 23:39:31;;;;;;;13.63;2.97;;;11.50;99.90;;;;;;12448968;28;20042;-36
2023/05/29 23:45:33;;;;;;;18.02;2.92;;;11.40;99.90;;;;;;12438145;28;20049;-37
2023/05/29 23:51:35;;;;;;;19.13;2.95;;;11.20;99.90;;;;;;12444486;28;20038;-37
2023/05/29 23:57:37;;;;;;;11.57;2.63;;;11.10;99.90;;;;;;12444407;28;20046;-36
